createdAt,value
2023-01-19T00:01:39.056Z,98469.63
2023-01-19T00:06:41.972Z,98463.56
2023-01-19T00:11:45.105Z,98461.28
2023-01-19T00:16:48.334Z,98459.78
2023-01-19T00:21:51.376Z,98464.91
2023-01-19T00:26:54.419Z,98472.44
2023-01-19T00:31:57.382Z,98466.38
2023-01-19T00:37:03.175Z,98467.66
2023-01-19T00:42:25.097Z,98458.63
2023-01-19T00:47:27.900Z,98455.84
2023-01-19T00:52:31.139Z,98458.94
2023-01-19T00:57:34.429Z,98470.09
2023-01-19T01:02:38.713Z,98457.13
2023-01-19T01:07:44.548Z,98458.13
2023-01-19T01:13:20.397Z,98452.03
2023-01-19T01:18:12.958Z,98443.16
2023-01-19T01:23:15.954Z,98432.50
2023-01-19T01:28:18.976Z,98442.00
2023-01-19T01:33:41.076Z,98459.81
2023-01-19T01:38:45.024Z,98454.91
2023-01-19T01:43:58.280Z,98461.44
2023-01-19T01:49:04.468Z,98459.28
2023-01-19T01:54:37.232Z,98465.16
2023-01-19T01:59:45.227Z,98465.31
2023-01-19T02:04:55.217Z,98477.56
2023-01-19T02:10:16.360Z,98495.25
2023-01-19T02:15:20.611Z,98501.78
2023-01-19T02:20:27.872Z,98484.22
2023-01-19T02:25:31.209Z,98440.13
2023-01-19T02:30:37.363Z,98449.44
2023-01-19T02:35:41.110Z,98464.00
2023-01-19T02:40:46.131Z,98482.34
2023-01-19T02:45:50.067Z,98467.44
2023-01-19T02:51:04.448Z,98454.66
2023-01-19T02:56:43.312Z,98442.69
2023-01-19T03:02:40.098Z,98454.97
2023-01-19T03:08:30.677Z,98468.34
2023-01-19T03:13:45.653Z,98459.16
2023-01-19T03:19:03.109Z,98476.84
2023-01-19T03:24:08.749Z,98493.69
2023-01-19T03:29:15.317Z,98512.97
2023-01-19T03:34:23.061Z,98482.41
2023-01-19T03:39:27.921Z,98444.06
2023-01-19T03:44:37.243Z,98427.03
2023-01-19T03:49:44.048Z,98416.00
2023-01-19T03:54:47.009Z,98435.22
2023-01-19T03:59:50.074Z,98456.28
2023-01-19T04:04:53.091Z,98464.59
2023-01-19T04:09:56.085Z,98498.38
2023-01-19T04:14:58.975Z,98462.03
2023-01-19T04:20:02.059Z,98488.66
2023-01-19T04:25:06.541Z,98477.84
2023-01-19T04:30:10.552Z,98487.47
2023-01-19T04:35:13.408Z,98472.72
2023-01-19T04:40:17.670Z,98477.69
2023-01-19T04:45:20.640Z,98461.97
2023-01-19T04:50:23.783Z,98438.00
2023-01-19T04:55:26.631Z,98436.56
2023-01-19T05:00:29.699Z,98460.78
2023-01-19T05:05:33.343Z,98464.38
2023-01-19T05:10:36.608Z,98490.53
2023-01-19T05:15:39.588Z,98492.72
2023-01-19T05:20:43.076Z,98469.00
2023-01-19T05:25:46.061Z,98483.94
2023-01-19T05:30:52.156Z,98498.22
2023-01-19T05:35:56.008Z,98513.59
2023-01-19T05:40:59.159Z,98514.13
2023-01-19T05:46:05.475Z,98517.28
2023-01-19T05:51:09.192Z,98499.47
2023-01-19T05:56:12.213Z,98494.09
2023-01-19T06:01:15.291Z,98496.56
2023-01-19T06:06:18.786Z,98457.44
2023-01-19T06:11:22.236Z,98459.91
2023-01-19T06:16:25.416Z,98469.53
2023-01-19T06:21:29.532Z,98452.19
2023-01-19T06:26:32.635Z,98467.06
2023-01-19T06:31:36.032Z,98452.34
2023-01-19T06:36:39.433Z,98454.66
2023-01-19T06:41:42.846Z,98459.91
2023-01-19T06:46:45.811Z,98498.03
2023-01-19T06:51:48.761Z,98500.34
2023-01-19T06:56:52.211Z,98501.53
2023-01-19T07:01:56.691Z,98484.69
2023-01-19T07:06:59.806Z,98474.56
2023-01-19T07:12:02.887Z,98465.75
2023-01-19T07:17:06.012Z,98454.00
2023-01-19T07:22:09.464Z,98470.06
2023-01-19T07:27:12.443Z,98488.59
2023-01-19T07:32:15.447Z,98507.13
2023-01-19T07:37:18.338Z,98497.84
2023-01-19T07:42:21.539Z,98511.31
2023-01-19T07:47:24.716Z,98510.50
2023-01-19T07:52:27.774Z,98519.72
2023-01-19T07:57:31.207Z,98517.91
2023-01-19T08:02:36.030Z,98518.88
2023-01-19T08:07:39.030Z,98513.78
2023-01-19T08:12:42.715Z,98504.28
2023-01-19T08:17:45.778Z,98508.38
2023-01-19T08:22:49.267Z,98507.28
2023-01-19T08:27:55.496Z,98497.59
2023-01-19T08:33:04.363Z,98499.25
2023-01-19T08:38:09.845Z,98483.06
2023-01-19T08:43:16.360Z,98483.56
2023-01-19T08:48:24.768Z,98503.22
2023-01-19T08:53:27.720Z,98514.22
2023-01-19T08:58:30.661Z,98526.19
2023-01-19T09:03:33.647Z,98518.50
2023-01-19T09:08:36.732Z,98507.34
2023-01-19T09:13:41.380Z,98511.25
2023-01-19T09:18:46.017Z,98505.03
2023-01-19T09:23:49.925Z,98513.06
2023-01-19T09:28:53.017Z,98520.94
2023-01-19T09:33:56.297Z,98511.41
2023-01-19T09:38:59.330Z,98502.06
2023-01-19T09:44:02.518Z,98501.56
2023-01-19T09:49:31.926Z,98506.81
2023-01-19T09:54:56.764Z,98497.28
2023-01-19T09:59:59.988Z,98497.44
2023-01-19T10:05:26.136Z,98501.22
2023-01-19T10:10:32.259Z,98511.84
2023-01-19T10:15:59.851Z,98508.72
2023-01-19T10:21:14.568Z,98506.72
2023-01-19T10:26:26.681Z,98509.78
2023-01-19T10:31:29.748Z,98506.00
2023-01-19T10:36:40.099Z,98512.38
2023-01-19T10:41:49.589Z,98512.69
2023-01-19T10:46:55.507Z,98518.25
2023-01-19T10:52:00.049Z,98526.56
2023-01-19T10:57:10.128Z,98536.50
2023-01-19T11:02:17.725Z,98544.53
2023-01-19T11:07:26.759Z,98543.22
2023-01-19T11:12:31.020Z,98538.25
2023-01-19T11:17:34.182Z,98542.84
2023-01-19T11:22:37.241Z,98548.53
2023-01-19T11:27:52.056Z,98548.16
2023-01-19T11:32:56.321Z,98540.28
2023-01-19T11:38:23.362Z,98535.72
2023-01-19T11:43:43.464Z,98532.81
2023-01-19T11:49:08.462Z,98547.91
2023-01-19T11:54:25.714Z,98551.13
2023-01-19T11:59:28.995Z,98557.22
2023-01-19T12:04:39.485Z,98557.41
2023-01-19T12:09:46.286Z,98555.03
2023-01-19T12:14:57.755Z,98576.69
2023-01-19T12:20:25.678Z,98581.66
2023-01-19T12:26:05.314Z,98577.38
2023-01-19T12:31:09.334Z,98585.25
2023-01-19T12:36:30.547Z,98597.38
2023-01-19T12:41:41.498Z,98599.25
2023-01-19T12:46:52.241Z,98605.78
2023-01-19T12:52:13.492Z,98612.81
2023-01-19T12:57:58.889Z,98621.28
2023-01-19T13:03:18.467Z,98634.84
2023-01-19T13:08:29.917Z,98627.47
2023-01-19T13:13:44.600Z,98640.03
2023-01-19T13:19:05.820Z,98652.47
2023-01-19T13:24:17.631Z,98661.44
2023-01-19T13:29:34.562Z,98678.50
2023-01-19T13:34:49.523Z,98686.50
2023-01-19T13:39:54.966Z,98704.47
2023-01-19T13:45:15.973Z,98716.81
2023-01-19T13:50:35.506Z,98721.44
2023-01-19T13:55:38.477Z,98734.28
2023-01-19T14:00:46.522Z,98738.31
2023-01-19T14:05:54.980Z,98749.91
2023-01-19T14:11:00.047Z,98749.91
2023-01-19T14:16:14.834Z,98746.91
2023-01-19T14:21:18.661Z,98755.03
2023-01-19T14:26:40.259Z,98757.41
2023-01-19T14:31:47.152Z,98730.00
2023-01-19T14:36:51.750Z,98728.53
2023-01-19T14:41:57.498Z,98753.47
2023-01-19T14:47:01.309Z,98769.91
2023-01-19T14:52:31.859Z,98786.16
2023-01-19T14:57:36.869Z,98771.16
2023-01-19T15:02:39.834Z,98789.22
2023-01-19T15:07:45.826Z,98792.13
2023-01-19T15:12:51.262Z,98804.38
2023-01-19T15:17:56.336Z,98818.44
2023-01-19T15:22:59.321Z,98839.34
2023-01-19T15:28:04.152Z,98842.91
2023-01-19T15:33:14.826Z,98819.50
2023-01-19T15:38:17.810Z,98845.97
2023-01-19T15:43:21.635Z,98856.44
2023-01-19T15:48:25.739Z,98857.41
2023-01-19T15:53:28.510Z,98852.28
2023-01-19T15:58:31.443Z,98869.91
2023-01-19T16:03:34.399Z,98888.06
2023-01-19T16:08:38.070Z,98888.88
2023-01-19T16:13:44.041Z,98922.06
2023-01-19T16:18:47.545Z,98916.16
2023-01-19T16:23:51.096Z,98937.75
2023-01-19T16:28:58.052Z,98952.38
2023-01-19T16:34:01.029Z,98960.91
2023-01-19T16:39:15.850Z,98970.53
2023-01-19T16:44:18.921Z,98981.81
2023-01-19T16:49:28.143Z,99000.13
2023-01-19T16:54:32.559Z,99015.13
2023-01-19T16:59:35.764Z,99031.91
2023-01-19T17:04:38.485Z,99020.75
2023-01-19T17:09:41.374Z,99032.31
2023-01-19T17:14:47.316Z,99037.53
2023-01-19T17:19:50.397Z,99036.16
2023-01-19T17:24:53.360Z,99057.09
2023-01-19T17:29:56.461Z,99069.44
2023-01-19T17:34:59.875Z,99067.78
2023-01-19T17:40:03.009Z,99065.47
2023-01-19T17:45:06.276Z,99061.06
2023-01-19T17:50:10.205Z,99066.44
2023-01-19T17:55:13.215Z,99065.03
2023-01-19T18:00:17.154Z,99068.59
2023-01-19T18:05:20.609Z,99076.00
2023-01-19T18:10:23.600Z,99076.53
2023-01-19T18:15:26.636Z,99088.88
2023-01-19T18:20:31.554Z,99088.47
2023-01-19T18:25:34.664Z,99097.78
2023-01-19T18:30:37.986Z,99099.69
2023-01-19T18:35:41.007Z,99107.28
2023-01-19T18:40:43.972Z,99117.47
2023-01-19T18:45:48.200Z,99118.31
2023-01-19T18:50:51.599Z,99111.56
2023-01-19T18:55:57.428Z,99106.56
2023-01-19T19:01:01.734Z,99113.59
2023-01-19T19:06:04.904Z,99115.50
2023-01-19T19:11:08.996Z,99125.97
2023-01-19T19:16:13.529Z,99125.28
2023-01-19T19:21:18.939Z,99132.16
2023-01-19T19:26:23.502Z,99137.38
2023-01-19T19:31:28.116Z,99147.94
2023-01-19T19:36:33.523Z,99158.41
2023-01-19T19:41:38.385Z,99161.28
2023-01-19T19:46:41.449Z,99183.84
2023-01-19T19:51:44.481Z,99182.31
2023-01-19T19:56:50.440Z,99188.47
2023-01-19T20:01:54.624Z,99203.31
2023-01-19T20:06:59.243Z,99212.38
2023-01-19T20:12:02.127Z,99203.81
2023-01-19T20:17:05.824Z,99211.94
2023-01-19T20:22:09.065Z,99211.09
2023-01-19T20:27:11.917Z,99202.69
2023-01-19T20:32:14.942Z,99201.16
2023-01-19T20:37:17.901Z,99200.69
2023-01-19T20:42:20.859Z,99209.38
2023-01-19T20:47:23.849Z,99202.72
2023-01-19T20:52:26.893Z,99206.56
2023-01-19T20:57:29.981Z,99211.19
2023-01-19T21:02:33.100Z,99218.44
2023-01-19T21:07:36.340Z,99231.50
2023-01-19T21:12:39.307Z,99214.88
2023-01-19T21:17:43.746Z,99224.94
2023-01-19T21:22:48.071Z,99234.47
2023-01-19T21:27:51.034Z,99233.25
2023-01-19T21:32:55.730Z,99242.50
2023-01-19T21:37:59.187Z,99231.22
2023-01-19T21:43:02.154Z,99235.75
2023-01-19T21:48:05.278Z,99250.47
2023-01-19T21:53:11.296Z,99260.19
2023-01-19T21:58:14.251Z,99285.75
2023-01-19T22:03:17.481Z,99336.31
2023-01-19T22:08:20.381Z,99357.09
2023-01-19T22:13:23.565Z,99317.41
2023-01-19T22:18:26.842Z,99298.78
2023-01-19T22:23:29.937Z,99296.03
2023-01-19T22:28:33.725Z,99317.25
2023-01-19T22:33:37.125Z,99315.13
2023-01-19T22:38:40.908Z,99312.38
2023-01-19T22:43:45.691Z,99288.16
2023-01-19T22:48:49.518Z,99300.16
2023-01-19T22:53:52.705Z,99299.25
2023-01-19T22:58:56.486Z,99285.41
2023-01-19T23:04:01.451Z,99291.22
2023-01-19T23:09:12.791Z,99294.44
2023-01-19T23:14:19.904Z,99263.72
2023-01-19T23:19:22.747Z,99261.47
2023-01-19T23:24:25.665Z,99258.66
2023-01-19T23:29:28.643Z,99254.47
2023-01-19T23:34:31.628Z,99257.00
2023-01-19T23:39:35.056Z,99262.78
2023-01-19T23:44:37.904Z,99266.09
2023-01-19T23:49:40.869Z,99282.47
2023-01-19T23:54:45.085Z,99292.56
2023-01-19T23:59:47.913Z,99306.06
